sensor_id;sensor_type;location;lat;lon;timestamp;P1;durP1;ratioP1;P2;durP2;ratioP2
61254;SDS011;47128;47.530;8.584;2022-09-06T00:01:25;9.32;;;6.05;;
61254;SDS011;47128;47.530;8.584;2022-09-06T00:03:51;9.50;;;5.25;;
61254;SDS011;47128;47.530;8.584;2022-09-06T00:06:17;10.25;;;5.90;;
61254;SDS011;47128;47.530;8.584;2022-09-06T00:08:44;11.57;;;5.93;;
61254;SDS011;47128;47.530;8.584;2022-09-06T00:11:11;9.27;;;5.60;;
61254;SDS011;47128;47.530;8.584;2022-09-06T00:13:37;7.50;;;5.10;;
61254;SDS011;47128;47.530;8.584;2022-09-06T00:16:13;9.57;;;5.47;;
61254;SDS011;47128;47.530;8.584;2022-09-06T00:18:40;10.20;;;5.60;;
61254;SDS011;47128;47.530;8.584;2022-09-06T00:24:02;10.35;;;6.03;;
61254;SDS011;47128;47.530;8.584;2022-09-06T00:26:28;11.02;;;5.72;;
61254;SDS011;47128;47.530;8.584;2022-09-06T00:28:53;10.73;;;5.40;;
61254;SDS011;47128;47.530;8.584;2022-09-06T00:31:21;10.90;;;5.72;;
61254;SDS011;47128;47.530;8.584;2022-09-06T00:33:48;6.50;;;5.20;;
61254;SDS011;47128;47.530;8.584;2022-09-06T00:36:14;6.88;;;4.97;;
61254;SDS011;47128;47.530;8.584;2022-09-06T00:38:40;8.13;;;5.63;;
61254;SDS011;47128;47.530;8.584;2022-09-06T00:41:07;9.02;;;5.38;;
61254;SDS011;47128;47.530;8.584;2022-09-06T00:43:34;9.13;;;5.53;;
61254;SDS011;47128;47.530;8.584;2022-09-06T00:46:01;9.60;;;5.28;;
61254;SDS011;47128;47.530;8.584;2022-09-06T00:48:28;8.65;;;5.35;;
61254;SDS011;47128;47.530;8.584;2022-09-06T00:50:55;10.63;;;5.75;;
61254;SDS011;47128;47.530;8.584;2022-09-06T00:53:24;6.78;;;5.45;;
61254;SDS011;47128;47.530;8.584;2022-09-06T00:55:50;8.55;;;5.25;;
61254;SDS011;47128;47.530;8.584;2022-09-06T00:58:17;9.57;;;5.13;;
61254;SDS011;47128;47.530;8.584;2022-09-06T01:00:42;9.15;;;5.10;;
61254;SDS011;47128;47.530;8.584;2022-09-06T01:03:11;13.13;;;6.10;;
61254;SDS011;47128;47.530;8.584;2022-09-06T01:06:21;7.35;;;5.35;;
61254;SDS011;47128;47.530;8.584;2022-09-06T01:08:47;8.27;;;5.70;;
61254;SDS011;47128;47.530;8.584;2022-09-06T01:17:22;10.48;;;5.72;;
61254;SDS011;47128;47.530;8.584;2022-09-06T01:20:02;6.57;;;5.47;;
61254;SDS011;47128;47.530;8.584;2022-09-06T01:28:16;7.72;;;5.72;;
61254;SDS011;47128;47.530;8.584;2022-09-06T01:36:23;17.20;;;7.63;;
61254;SDS011;47128;47.530;8.584;2022-09-06T01:38:52;13.60;;;6.80;;
61254;SDS011;47128;47.530;8.584;2022-09-06T01:41:18;10.63;;;6.80;;
61254;SDS011;47128;47.530;8.584;2022-09-06T01:43:44;10.82;;;6.43;;
61254;SDS011;47128;47.530;8.584;2022-09-06T01:49:07;20.80;;;8.40;;
61254;SDS011;47128;47.530;8.584;2022-09-06T01:51:49;11.57;;;7.68;;
61254;SDS011;47128;47.530;8.584;2022-09-06T02:08:07;12.52;;;7.25;;
61254;SDS011;47128;47.530;8.584;2022-09-06T02:11:11;16.38;;;8.75;;
61254;SDS011;47128;47.530;8.584;2022-09-06T02:13:40;13.30;;;7.32;;
61254;SDS011;47128;47.530;8.584;2022-09-06T02:16:12;10.95;;;7.53;;
61254;SDS011;47128;47.530;8.584;2022-09-06T02:19:02;14.40;;;7.10;;
61254;SDS011;47128;47.530;8.584;2022-09-06T02:21:34;16.40;;;8.15;;
61254;SDS011;47128;47.530;8.584;2022-09-06T02:24:04;13.02;;;7.38;;
61254;SDS011;47128;47.530;8.584;2022-09-06T02:26:36;15.85;;;7.68;;
61254;SDS011;47128;47.530;8.584;2022-09-06T02:31:36;15.63;;;7.93;;
61254;SDS011;47128;47.530;8.584;2022-09-06T02:34:06;15.43;;;7.55;;
61254;SDS011;47128;47.530;8.584;2022-09-06T02:36:34;17.48;;;7.00;;
61254;SDS011;47128;47.530;8.584;2022-09-06T02:39:00;10.70;;;6.82;;
61254;SDS011;47128;47.530;8.584;2022-09-06T02:41:26;12.43;;;7.97;;
61254;SDS011;47128;47.530;8.584;2022-09-06T02:43:54;13.25;;;7.60;;
61254;SDS011;47128;47.530;8.584;2022-09-06T02:46:20;14.73;;;7.40;;
61254;SDS011;47128;47.530;8.584;2022-09-06T02:48:48;16.52;;;7.85;;
61254;SDS011;47128;47.530;8.584;2022-09-06T02:51:14;14.20;;;7.70;;
61254;SDS011;47128;47.530;8.584;2022-09-06T02:53:40;17.30;;;7.43;;
61254;SDS011;47128;47.530;8.584;2022-09-06T02:56:05;13.45;;;7.20;;
61254;SDS011;47128;47.530;8.584;2022-09-06T02:58:31;19.63;;;8.00;;
61254;SDS011;47128;47.530;8.584;2022-09-06T03:00:57;11.40;;;6.90;;
61254;SDS011;47128;47.530;8.584;2022-09-06T03:03:22;12.85;;;7.07;;
61254;SDS011;47128;47.530;8.584;2022-09-06T03:05:49;11.10;;;7.18;;
61254;SDS011;47128;47.530;8.584;2022-09-06T03:08:16;13.05;;;7.00;;
61254;SDS011;47128;47.530;8.584;2022-09-06T03:10:50;14.38;;;7.53;;
61254;SDS011;47128;47.530;8.584;2022-09-06T03:13:17;12.30;;;7.50;;
61254;SDS011;47128;47.530;8.584;2022-09-06T03:15:43;13.63;;;7.57;;
61254;SDS011;47128;47.530;8.584;2022-09-06T03:18:09;14.30;;;7.78;;
61254;SDS011;47128;47.530;8.584;2022-09-06T03:20:35;18.80;;;10.25;;
61254;SDS011;47128;47.530;8.584;2022-09-06T03:23:01;11.02;;;7.43;;
61254;SDS011;47128;47.530;8.584;2022-09-06T03:25:27;11.65;;;6.85;;
61254;SDS011;47128;47.530;8.584;2022-09-06T03:27:53;14.98;;;8.32;;
61254;SDS011;47128;47.530;8.584;2022-09-06T03:30:19;14.27;;;7.20;;
61254;SDS011;47128;47.530;8.584;2022-09-06T03:32:44;11.95;;;6.88;;
61254;SDS011;47128;47.530;8.584;2022-09-06T03:35:10;14.00;;;7.63;;
61254;SDS011;47128;47.530;8.584;2022-09-06T03:37:36;12.82;;;7.25;;
61254;SDS011;47128;47.530;8.584;2022-09-06T03:40:05;12.13;;;7.25;;
61254;SDS011;47128;47.530;8.584;2022-09-06T03:42:31;10.55;;;7.20;;
61254;SDS011;47128;47.530;8.584;2022-09-06T03:44:57;14.25;;;7.10;;
61254;SDS011;47128;47.530;8.584;2022-09-06T03:47:23;13.32;;;7.95;;
61254;SDS011;47128;47.530;8.584;2022-09-06T03:49:48;13.23;;;7.32;;
61254;SDS011;47128;47.530;8.584;2022-09-06T03:52:15;11.00;;;6.57;;
61254;SDS011;47128;47.530;8.584;2022-09-06T03:54:47;12.82;;;7.13;;
61254;SDS011;47128;47.530;8.584;2022-09-06T03:57:13;13.70;;;6.60;;
61254;SDS011;47128;47.530;8.584;2022-09-06T03:59:38;11.73;;;7.22;;
61254;SDS011;47128;47.530;8.584;2022-09-06T04:02:04;13.20;;;7.15;;
61254;SDS011;47128;47.530;8.584;2022-09-06T04:04:30;14.20;;;7.88;;
61254;SDS011;47128;47.530;8.584;2022-09-06T04:06:56;13.63;;;7.72;;
61254;SDS011;47128;47.530;8.584;2022-09-06T04:09:21;14.38;;;8.27;;
61254;SDS011;47128;47.530;8.584;2022-09-06T04:11:47;12.75;;;7.07;;
61254;SDS011;47128;47.530;8.584;2022-09-06T04:14:13;13.10;;;7.88;;
61254;SDS011;47128;47.530;8.584;2022-09-06T04:16:39;11.95;;;6.95;;
61254;SDS011;47128;47.530;8.584;2022-09-06T04:19:04;14.20;;;7.72;;
61254;SDS011;47128;47.530;8.584;2022-09-06T04:21:30;13.93;;;7.60;;
61254;SDS011;47128;47.530;8.584;2022-09-06T04:23:56;13.38;;;8.07;;
61254;SDS011;47128;47.530;8.584;2022-09-06T04:26:21;17.25;;;8.18;;
61254;SDS011;47128;47.530;8.584;2022-09-06T04:28:47;15.60;;;8.15;;
61254;SDS011;47128;47.530;8.584;2022-09-06T04:31:12;11.27;;;7.82;;
61254;SDS011;47128;47.530;8.584;2022-09-06T04:33:38;14.35;;;7.57;;
61254;SDS011;47128;47.530;8.584;2022-09-06T04:36:05;13.52;;;7.32;;
61254;SDS011;47128;47.530;8.584;2022-09-06T04:38:39;10.45;;;7.40;;
61254;SDS011;47128;47.530;8.584;2022-09-06T04:41:07;13.45;;;7.75;;
61254;SDS011;47128;47.530;8.584;2022-09-06T04:43:34;12.05;;;7.20;;
61254;SDS011;47128;47.530;8.584;2022-09-06T04:46:03;14.52;;;8.05;;
61254;SDS011;47128;47.530;8.584;2022-09-06T04:48:30;13.05;;;8.20;;
61254;SDS011;47128;47.530;8.584;2022-09-06T04:50:56;14.30;;;7.63;;
61254;SDS011;47128;47.530;8.584;2022-09-06T04:53:21;10.93;;;7.28;;
61254;SDS011;47128;47.530;8.584;2022-09-06T04:55:47;15.52;;;6.82;;
61254;SDS011;47128;47.530;8.584;2022-09-06T04:58:12;12.40;;;7.50;;
61254;SDS011;47128;47.530;8.584;2022-09-06T05:00:38;10.93;;;7.07;;
61254;SDS011;47128;47.530;8.584;2022-09-06T05:03:05;11.10;;;7.30;;
61254;SDS011;47128;47.530;8.584;2022-09-06T05:05:31;14.00;;;7.97;;
61254;SDS011;47128;47.530;8.584;2022-09-06T05:07:56;12.32;;;7.75;;
61254;SDS011;47128;47.530;8.584;2022-09-06T05:10:22;11.30;;;7.65;;
61254;SDS011;47128;47.530;8.584;2022-09-06T05:12:50;13.25;;;7.90;;
61254;SDS011;47128;47.530;8.584;2022-09-06T05:15:17;12.30;;;7.10;;
61254;SDS011;47128;47.530;8.584;2022-09-06T05:17:43;14.75;;;9.15;;
61254;SDS011;47128;47.530;8.584;2022-09-06T05:20:09;16.02;;;9.48;;
61254;SDS011;47128;47.530;8.584;2022-09-06T05:22:35;14.23;;;9.23;;
61254;SDS011;47128;47.530;8.584;2022-09-06T05:25:01;23.90;;;10.05;;
61254;SDS011;47128;47.530;8.584;2022-09-06T05:27:27;22.92;;;10.65;;
61254;SDS011;47128;47.530;8.584;2022-09-06T05:29:53;27.27;;;9.38;;
61254;SDS011;47128;47.530;8.584;2022-09-06T05:32:19;58.35;;;11.70;;
61254;SDS011;47128;47.530;8.584;2022-09-06T05:34:44;47.67;;;11.45;;
61254;SDS011;47128;47.530;8.584;2022-09-06T05:37:10;39.50;;;11.10;;
61254;SDS011;47128;47.530;8.584;2022-09-06T05:39:36;38.25;;;10.18;;
61254;SDS011;47128;47.530;8.584;2022-09-06T05:42:01;45.90;;;10.63;;
61254;SDS011;47128;47.530;8.584;2022-09-06T05:44:34;44.50;;;10.75;;
61254;SDS011;47128;47.530;8.584;2022-09-06T05:47:00;87.03;;;13.20;;
61254;SDS011;47128;47.530;8.584;2022-09-06T05:49:30;119.15;;;13.20;;
61254;SDS011;47128;47.530;8.584;2022-09-06T05:51:56;35.22;;;10.32;;
61254;SDS011;47128;47.530;8.584;2022-09-06T05:54:22;36.88;;;9.05;;
61254;SDS011;47128;47.530;8.584;2022-09-06T05:56:48;15.13;;;8.98;;
61254;SDS011;47128;47.530;8.584;2022-09-06T05:59:14;16.45;;;9.13;;
61254;SDS011;47128;47.530;8.584;2022-09-06T06:02:13;18.67;;;8.45;;
61254;SDS011;47128;47.530;8.584;2022-09-06T06:04:32;11.75;;;8.77;;
61254;SDS011;47128;47.530;8.584;2022-09-06T06:06:58;16.33;;;9.82;;
61254;SDS011;47128;47.530;8.584;2022-09-06T06:09:23;13.07;;;8.95;;
61254;SDS011;47128;47.530;8.584;2022-09-06T06:11:49;14.77;;;9.82;;
61254;SDS011;47128;47.530;8.584;2022-09-06T06:14:14;13.93;;;9.52;;
61254;SDS011;47128;47.530;8.584;2022-09-06T06:16:40;14.07;;;9.68;;
61254;SDS011;47128;47.530;8.584;2022-09-06T06:19:06;15.00;;;9.73;;
61254;SDS011;47128;47.530;8.584;2022-09-06T06:21:34;14.65;;;8.05;;
61254;SDS011;47128;47.530;8.584;2022-09-06T06:24:04;12.13;;;8.48;;
61254;SDS011;47128;47.530;8.584;2022-09-06T06:26:32;15.82;;;8.95;;
61254;SDS011;47128;47.530;8.584;2022-09-06T06:29:05;13.55;;;9.35;;
61254;SDS011;47128;47.530;8.584;2022-09-06T06:31:42;22.05;;;9.20;;
61254;SDS011;47128;47.530;8.584;2022-09-06T06:34:13;15.45;;;9.23;;
61254;SDS011;47128;47.530;8.584;2022-09-06T06:40:08;14.57;;;8.60;;
61254;SDS011;47128;47.530;8.584;2022-09-06T06:42:39;12.38;;;9.02;;
61254;SDS011;47128;47.530;8.584;2022-09-06T06:45:08;12.73;;;8.43;;
61254;SDS011;47128;47.530;8.584;2022-09-06T06:47:36;13.10;;;8.43;;
61254;SDS011;47128;47.530;8.584;2022-09-06T06:52:33;11.30;;;7.97;;
61254;SDS011;47128;47.530;8.584;2022-09-06T06:55:03;8.52;;;6.97;;
61254;SDS011;47128;47.530;8.584;2022-09-06T06:57:34;8.80;;;7.30;;
61254;SDS011;47128;47.530;8.584;2022-09-06T07:00:07;8.68;;;6.88;;
61254;SDS011;47128;47.530;8.584;2022-09-06T07:02:36;10.20;;;7.93;;
61254;SDS011;47128;47.530;8.584;2022-09-06T07:05:04;10.65;;;7.75;;
61254;SDS011;47128;47.530;8.584;2022-09-06T07:07:31;11.20;;;8.40;;
61254;SDS011;47128;47.530;8.584;2022-09-06T07:09:57;11.73;;;8.13;;
61254;SDS011;47128;47.530;8.584;2022-09-06T07:12:32;8.40;;;7.53;;
61254;SDS011;47128;47.530;8.584;2022-09-06T07:15:02;10.85;;;8.10;;
61254;SDS011;47128;47.530;8.584;2022-09-06T07:17:28;9.52;;;7.38;;
61254;SDS011;47128;47.530;8.584;2022-09-06T07:19:55;10.50;;;7.50;;
61254;SDS011;47128;47.530;8.584;2022-09-06T07:22:24;9.68;;;6.93;;
61254;SDS011;47128;47.530;8.584;2022-09-06T07:24:59;13.73;;;6.43;;
61254;SDS011;47128;47.530;8.584;2022-09-06T07:27:39;8.18;;;6.38;;
61254;SDS011;47128;47.530;8.584;2022-09-06T07:30:14;8.07;;;6.65;;
61254;SDS011;47128;47.530;8.584;2022-09-06T07:32:44;8.57;;;6.28;;
61254;SDS011;47128;47.530;8.584;2022-09-06T07:37:57;9.80;;;6.68;;
61254;SDS011;47128;47.530;8.584;2022-09-06T07:40:25;7.65;;;5.90;;
61254;SDS011;47128;47.530;8.584;2022-09-06T07:43:05;7.38;;;5.68;;
61254;SDS011;47128;47.530;8.584;2022-09-06T07:45:34;8.00;;;5.82;;
61254;SDS011;47128;47.530;8.584;2022-09-06T07:48:07;8.02;;;6.07;;
61254;SDS011;47128;47.530;8.584;2022-09-06T07:50:33;10.18;;;6.18;;
61254;SDS011;47128;47.530;8.584;2022-09-06T07:53:05;9.20;;;6.25;;
61254;SDS011;47128;47.530;8.584;2022-09-06T07:55:35;7.43;;;5.50;;
61254;SDS011;47128;47.530;8.584;2022-09-06T07:58:02;8.43;;;5.95;;
61254;SDS011;47128;47.530;8.584;2022-09-06T08:00:32;9.40;;;6.30;;
61254;SDS011;47128;47.530;8.584;2022-09-06T08:02:59;9.63;;;7.05;;
61254;SDS011;47128;47.530;8.584;2022-09-06T08:05:25;10.77;;;7.18;;
61254;SDS011;47128;47.530;8.584;2022-09-06T08:10:37;14.00;;;7.30;;
61254;SDS011;47128;47.530;8.584;2022-09-06T08:13:03;12.75;;;7.70;;
61254;SDS011;47128;47.530;8.584;2022-09-06T08:15:39;11.55;;;7.35;;
61254;SDS011;47128;47.530;8.584;2022-09-06T08:18:05;9.10;;;7.00;;
61254;SDS011;47128;47.530;8.584;2022-09-06T08:20:34;10.50;;;7.35;;
61254;SDS011;47128;47.530;8.584;2022-09-06T08:23:00;11.15;;;8.07;;
61254;SDS011;47128;47.530;8.584;2022-09-06T08:25:30;10.65;;;7.60;;
61254;SDS011;47128;47.530;8.584;2022-09-06T08:27:56;11.02;;;7.60;;
61254;SDS011;47128;47.530;8.584;2022-09-06T08:30:26;10.25;;;7.63;;
61254;SDS011;47128;47.530;8.584;2022-09-06T08:33:00;10.27;;;7.75;;
61254;SDS011;47128;47.530;8.584;2022-09-06T08:35:27;13.95;;;8.38;;
61254;SDS011;47128;47.530;8.584;2022-09-06T08:37:53;13.07;;;8.20;;
61254;SDS011;47128;47.530;8.584;2022-09-06T08:40:27;17.15;;;12.07;;
61254;SDS011;47128;47.530;8.584;2022-09-06T08:42:54;14.05;;;10.88;;
61254;SDS011;47128;47.530;8.584;2022-09-06T08:45:24;14.00;;;9.90;;
61254;SDS011;47128;47.530;8.584;2022-09-06T08:47:55;11.50;;;8.52;;
61254;SDS011;47128;47.530;8.584;2022-09-06T08:50:22;16.02;;;9.80;;
61254;SDS011;47128;47.530;8.584;2022-09-06T09:01:05;14.65;;;8.27;;
61254;SDS011;47128;47.530;8.584;2022-09-06T09:03:39;16.35;;;10.10;;
61254;SDS011;47128;47.530;8.584;2022-09-06T09:06:09;12.27;;;8.80;;
61254;SDS011;47128;47.530;8.584;2022-09-06T09:11:18;13.02;;;7.60;;
61254;SDS011;47128;47.530;8.584;2022-09-06T09:13:54;16.05;;;8.88;;
61254;SDS011;47128;47.530;8.584;2022-09-06T09:16:51;12.63;;;7.97;;
61254;SDS011;47128;47.530;8.584;2022-09-06T09:19:22;10.63;;;7.40;;
61254;SDS011;47128;47.530;8.584;2022-09-06T09:21:56;12.65;;;7.75;;
61254;SDS011;47128;47.530;8.584;2022-09-06T09:24:33;13.27;;;8.40;;
61254;SDS011;47128;47.530;8.584;2022-09-06T09:27:04;12.18;;;8.27;;
61254;SDS011;47128;47.530;8.584;2022-09-06T09:32:42;13.73;;;7.65;;
61254;SDS011;47128;47.530;8.584;2022-09-06T09:38:08;9.05;;;7.05;;
61254;SDS011;47128;47.530;8.584;2022-09-06T09:40:41;12.98;;;7.43;;
61254;SDS011;47128;47.530;8.584;2022-09-06T09:54:37;13.80;;;6.90;;
61254;SDS011;47128;47.530;8.584;2022-09-06T09:57:11;11.98;;;7.47;;
61254;SDS011;47128;47.530;8.584;2022-09-06T09:59:45;10.40;;;6.80;;
61254;SDS011;47128;47.530;8.584;2022-09-06T10:02:29;10.07;;;6.80;;
61254;SDS011;47128;47.530;8.584;2022-09-06T10:07:47;9.43;;;6.20;;
61254;SDS011;47128;47.530;8.584;2022-09-06T10:13:20;10.15;;;6.70;;
61254;SDS011;47128;47.530;8.584;2022-09-06T10:19:40;16.30;;;9.32;;
61254;SDS011;47128;47.530;8.584;2022-09-06T10:31:15;13.15;;;8.98;;
61254;SDS011;47128;47.530;8.584;2022-09-06T10:39:56;11.63;;;7.88;;
61254;SDS011;47128;47.530;8.584;2022-09-06T10:48:02;11.90;;;8.40;;
61254;SDS011;47128;47.530;8.584;2022-09-06T10:53:17;11.80;;;6.68;;
61254;SDS011;47128;47.530;8.584;2022-09-06T10:56:00;11.80;;;6.35;;
61254;SDS011;47128;47.530;8.584;2022-09-06T10:58:42;9.93;;;5.57;;
61254;SDS011;47128;47.530;8.584;2022-09-06T11:04:20;8.68;;;4.97;;
61254;SDS011;47128;47.530;8.584;2022-09-06T11:06:55;9.43;;;5.05;;
61254;SDS011;47128;47.530;8.584;2022-09-06T11:09:33;11.75;;;5.72;;
61254;SDS011;47128;47.530;8.584;2022-09-06T11:12:11;9.90;;;5.97;;
61254;SDS011;47128;47.530;8.584;2022-09-06T11:14:52;7.88;;;5.03;;
61254;SDS011;47128;47.530;8.584;2022-09-06T11:17:21;12.20;;;5.53;;
61254;SDS011;47128;47.530;8.584;2022-09-06T11:20:22;9.60;;;6.05;;
61254;SDS011;47128;47.530;8.584;2022-09-06T11:25:42;10.57;;;4.85;;
61254;SDS011;47128;47.530;8.584;2022-09-06T11:28:14;8.60;;;5.63;;
61254;SDS011;47128;47.530;8.584;2022-09-06T11:30:46;7.55;;;5.30;;
61254;SDS011;47128;47.530;8.584;2022-09-06T11:39:00;8.90;;;5.88;;
61254;SDS011;47128;47.530;8.584;2022-09-06T11:41:42;10.68;;;5.45;;
61254;SDS011;47128;47.530;8.584;2022-09-06T11:44:09;10.60;;;5.60;;
61254;SDS011;47128;47.530;8.584;2022-09-06T11:51:59;11.32;;;6.20;;
61254;SDS011;47128;47.530;8.584;2022-09-06T11:57:20;9.70;;;6.03;;
61254;SDS011;47128;47.530;8.584;2022-09-06T12:00:03;13.73;;;6.13;;
61254;SDS011;47128;47.530;8.584;2022-09-06T12:02:38;12.02;;;6.18;;
61254;SDS011;47128;47.530;8.584;2022-09-06T12:13:40;13.35;;;6.80;;
61254;SDS011;47128;47.530;8.584;2022-09-06T12:16:19;11.63;;;6.53;;
61254;SDS011;47128;47.530;8.584;2022-09-06T12:29:50;11.57;;;5.95;;
61254;SDS011;47128;47.530;8.584;2022-09-06T12:32:23;10.02;;;5.30;;
61254;SDS011;47128;47.530;8.584;2022-09-06T12:34:54;11.98;;;6.03;;
61254;SDS011;47128;47.530;8.584;2022-09-06T12:37:32;20.13;;;5.50;;
61254;SDS011;47128;47.530;8.584;2022-09-06T12:40:04;10.77;;;5.10;;
61254;SDS011;47128;47.530;8.584;2022-09-06T12:42:38;8.32;;;3.80;;
61254;SDS011;47128;47.530;8.584;2022-09-06T12:45:06;6.32;;;2.92;;
61254;SDS011;47128;47.530;8.584;2022-09-06T12:47:36;4.93;;;3.08;;
61254;SDS011;47128;47.530;8.584;2022-09-06T12:52:53;6.38;;;2.05;;
61254;SDS011;47128;47.530;8.584;2022-09-06T12:55:24;5.78;;;2.50;;
61254;SDS011;47128;47.530;8.584;2022-09-06T12:57:55;5.03;;;1.98;;
61254;SDS011;47128;47.530;8.584;2022-09-06T13:00:23;4.50;;;2.20;;
61254;SDS011;47128;47.530;8.584;2022-09-06T13:05:45;4.78;;;2.50;;
61254;SDS011;47128;47.530;8.584;2022-09-06T13:08:15;7.25;;;2.97;;
61254;SDS011;47128;47.530;8.584;2022-09-06T13:10:53;7.97;;;2.85;;
61254;SDS011;47128;47.530;8.584;2022-09-06T13:13:22;8.18;;;2.70;;
61254;SDS011;47128;47.530;8.584;2022-09-06T13:15:52;7.07;;;2.15;;
61254;SDS011;47128;47.530;8.584;2022-09-06T13:21:06;7.95;;;3.03;;
61254;SDS011;47128;47.530;8.584;2022-09-06T13:23:46;6.55;;;2.70;;
61254;SDS011;47128;47.530;8.584;2022-09-06T13:26:14;5.88;;;2.70;;
61254;SDS011;47128;47.530;8.584;2022-09-06T13:28:56;5.63;;;2.55;;
61254;SDS011;47128;47.530;8.584;2022-09-06T13:31:33;3.97;;;2.78;;
61254;SDS011;47128;47.530;8.584;2022-09-06T13:34:00;5.55;;;2.13;;
61254;SDS011;47128;47.530;8.584;2022-09-06T13:36:39;5.57;;;2.30;;
61254;SDS011;47128;47.530;8.584;2022-09-06T13:39:37;4.60;;;1.77;;
61254;SDS011;47128;47.530;8.584;2022-09-06T13:42:04;4.13;;;2.20;;
61254;SDS011;47128;47.530;8.584;2022-09-06T13:44:32;6.65;;;2.00;;
61254;SDS011;47128;47.530;8.584;2022-09-06T13:47:01;4.85;;;1.95;;
61254;SDS011;47128;47.530;8.584;2022-09-06T13:49:30;8.13;;;2.50;;
61254;SDS011;47128;47.530;8.584;2022-09-06T13:54:28;11.07;;;6.60;;
61254;SDS011;47128;47.530;8.584;2022-09-06T13:56:54;6.68;;;4.18;;
61254;SDS011;47128;47.530;8.584;2022-09-06T13:59:21;7.68;;;3.60;;
61254;SDS011;47128;47.530;8.584;2022-09-06T14:01:52;5.88;;;2.30;;
61254;SDS011;47128;47.530;8.584;2022-09-06T14:06:54;10.80;;;2.22;;
61254;SDS011;47128;47.530;8.584;2022-09-06T14:09:20;4.43;;;1.83;;
61254;SDS011;47128;47.530;8.584;2022-09-06T14:14:26;3.15;;;1.67;;
61254;SDS011;47128;47.530;8.584;2022-09-06T14:16:51;3.92;;;1.80;;
61254;SDS011;47128;47.530;8.584;2022-09-06T14:19:19;3.25;;;1.50;;
61254;SDS011;47128;47.530;8.584;2022-09-06T14:21:44;3.72;;;1.48;;
61254;SDS011;47128;47.530;8.584;2022-09-06T14:24:10;4.53;;;1.70;;
61254;SDS011;47128;47.530;8.584;2022-09-06T14:26:36;6.55;;;2.28;;
61254;SDS011;47128;47.530;8.584;2022-09-06T14:31:32;7.43;;;1.90;;
61254;SDS011;47128;47.530;8.584;2022-09-06T14:33:58;6.28;;;2.08;;
61254;SDS011;47128;47.530;8.584;2022-09-06T14:36:29;3.50;;;1.48;;
61254;SDS011;47128;47.530;8.584;2022-09-06T14:38:56;7.22;;;2.10;;
61254;SDS011;47128;47.530;8.584;2022-09-06T14:41:28;4.72;;;2.03;;
61254;SDS011;47128;47.530;8.584;2022-09-06T14:43:54;3.28;;;1.55;;
61254;SDS011;47128;47.530;8.584;2022-09-06T14:46:22;6.43;;;1.70;;
61254;SDS011;47128;47.530;8.584;2022-09-06T14:49:00;6.28;;;1.98;;
61254;SDS011;47128;47.530;8.584;2022-09-06T14:51:32;4.65;;;2.33;;
61254;SDS011;47128;47.530;8.584;2022-09-06T14:54:04;3.35;;;1.73;;
61254;SDS011;47128;47.530;8.584;2022-09-06T14:56:34;3.08;;;1.75;;
61254;SDS011;47128;47.530;8.584;2022-09-06T14:59:02;4.97;;;2.10;;
61254;SDS011;47128;47.530;8.584;2022-09-06T15:01:29;6.07;;;2.22;;
61254;SDS011;47128;47.530;8.584;2022-09-06T15:04:01;5.55;;;2.08;;
61254;SDS011;47128;47.530;8.584;2022-09-06T15:06:29;7.25;;;2.38;;
61254;SDS011;47128;47.530;8.584;2022-09-06T15:08:56;4.22;;;2.17;;
61254;SDS011;47128;47.530;8.584;2022-09-06T15:11:27;4.85;;;2.08;;
61254;SDS011;47128;47.530;8.584;2022-09-06T15:13:58;7.18;;;2.85;;
61254;SDS011;47128;47.530;8.584;2022-09-06T15:16:28;6.10;;;2.60;;
61254;SDS011;47128;47.530;8.584;2022-09-06T15:18:54;6.63;;;2.25;;
61254;SDS011;47128;47.530;8.584;2022-09-06T15:21:20;5.00;;;2.00;;
61254;SDS011;47128;47.530;8.584;2022-09-06T15:23:46;6.97;;;2.30;;
61254;SDS011;47128;47.530;8.584;2022-09-06T15:26:12;7.03;;;2.33;;
61254;SDS011;47128;47.530;8.584;2022-09-06T15:28:40;6.28;;;1.90;;
61254;SDS011;47128;47.530;8.584;2022-09-06T15:31:08;4.40;;;2.22;;
61254;SDS011;47128;47.530;8.584;2022-09-06T15:33:36;3.55;;;2.28;;
61254;SDS011;47128;47.530;8.584;2022-09-06T15:36:03;6.50;;;2.50;;
61254;SDS011;47128;47.530;8.584;2022-09-06T15:38:31;5.50;;;2.08;;
61254;SDS011;47128;47.530;8.584;2022-09-06T15:41:07;6.57;;;2.17;;
61254;SDS011;47128;47.530;8.584;2022-09-06T15:43:35;5.30;;;1.85;;
61254;SDS011;47128;47.530;8.584;2022-09-06T15:46:05;4.25;;;1.80;;
61254;SDS011;47128;47.530;8.584;2022-09-06T15:48:38;4.50;;;2.03;;
61254;SDS011;47128;47.530;8.584;2022-09-06T15:51:05;6.68;;;2.40;;
61254;SDS011;47128;47.530;8.584;2022-09-06T15:53:31;5.00;;;2.50;;
61254;SDS011;47128;47.530;8.584;2022-09-06T15:55:57;5.28;;;2.30;;
61254;SDS011;47128;47.530;8.584;2022-09-06T15:58:25;9.80;;;2.65;;
61254;SDS011;47128;47.530;8.584;2022-09-06T16:01:11;6.85;;;2.30;;
61254;SDS011;47128;47.530;8.584;2022-09-06T16:03:42;4.45;;;2.10;;
61254;SDS011;47128;47.530;8.584;2022-09-06T16:06:10;3.25;;;1.83;;
61254;SDS011;47128;47.530;8.584;2022-09-06T16:08:39;5.82;;;2.47;;
61254;SDS011;47128;47.530;8.584;2022-09-06T16:11:09;7.78;;;2.60;;
61254;SDS011;47128;47.530;8.584;2022-09-06T16:13:37;10.43;;;2.47;;
61254;SDS011;47128;47.530;8.584;2022-09-06T16:16:05;3.53;;;1.92;;
61254;SDS011;47128;47.530;8.584;2022-09-06T16:18:33;3.47;;;2.00;;
61254;SDS011;47128;47.530;8.584;2022-09-06T16:21:08;5.57;;;2.08;;
61254;SDS011;47128;47.530;8.584;2022-09-06T16:23:36;6.90;;;2.72;;
61254;SDS011;47128;47.530;8.584;2022-09-06T16:28:34;7.95;;;2.25;;
61254;SDS011;47128;47.530;8.584;2022-09-06T16:31:05;6.63;;;1.80;;
61254;SDS011;47128;47.530;8.584;2022-09-06T16:33:50;5.13;;;2.08;;
61254;SDS011;47128;47.530;8.584;2022-09-06T16:36:59;4.43;;;1.75;;
61254;SDS011;47128;47.530;8.584;2022-09-06T16:39:32;5.43;;;1.92;;
61254;SDS011;47128;47.530;8.584;2022-09-06T16:42:08;5.30;;;1.70;;
61254;SDS011;47128;47.530;8.584;2022-09-06T16:44:35;4.40;;;1.80;;
61254;SDS011;47128;47.530;8.584;2022-09-06T16:47:01;5.88;;;1.70;;
61254;SDS011;47128;47.530;8.584;2022-09-06T16:49:31;4.05;;;2.05;;
61254;SDS011;47128;47.530;8.584;2022-09-06T16:51:57;5.45;;;1.92;;
61254;SDS011;47128;47.530;8.584;2022-09-06T16:54:22;5.00;;;1.80;;
61254;SDS011;47128;47.530;8.584;2022-09-06T16:56:53;3.88;;;1.60;;
61254;SDS011;47128;47.530;8.584;2022-09-06T16:59:19;4.75;;;1.70;;
61254;SDS011;47128;47.530;8.584;2022-09-06T17:01:45;8.57;;;2.03;;
61254;SDS011;47128;47.530;8.584;2022-09-06T17:04:12;5.75;;;2.00;;
61254;SDS011;47128;47.530;8.584;2022-09-06T17:06:37;6.88;;;1.63;;
61254;SDS011;47128;47.530;8.584;2022-09-06T17:09:08;6.00;;;2.10;;
61254;SDS011;47128;47.530;8.584;2022-09-06T17:11:44;5.35;;;2.08;;
61254;SDS011;47128;47.530;8.584;2022-09-06T17:14:11;5.10;;;1.75;;
61254;SDS011;47128;47.530;8.584;2022-09-06T17:16:37;3.05;;;1.92;;
61254;SDS011;47128;47.530;8.584;2022-09-06T17:19:21;5.47;;;2.20;;
61254;SDS011;47128;47.530;8.584;2022-09-06T17:21:50;4.80;;;1.60;;
61254;SDS011;47128;47.530;8.584;2022-09-06T17:24:28;4.28;;;2.05;;
61254;SDS011;47128;47.530;8.584;2022-09-06T17:26:54;5.38;;;2.53;;
61254;SDS011;47128;47.530;8.584;2022-09-06T17:29:23;7.15;;;2.17;;
61254;SDS011;47128;47.530;8.584;2022-09-06T17:31:50;5.22;;;2.10;;
61254;SDS011;47128;47.530;8.584;2022-09-06T17:34:16;4.82;;;2.10;;
61254;SDS011;47128;47.530;8.584;2022-09-06T17:36:42;6.28;;;2.60;;
61254;SDS011;47128;47.530;8.584;2022-09-06T17:39:12;7.22;;;2.30;;
61254;SDS011;47128;47.530;8.584;2022-09-06T17:41:39;7.55;;;2.40;;
61254;SDS011;47128;47.530;8.584;2022-09-06T17:44:13;5.57;;;2.40;;
61254;SDS011;47128;47.530;8.584;2022-09-06T17:46:43;5.05;;;2.58;;
61254;SDS011;47128;47.530;8.584;2022-09-06T17:49:16;5.28;;;2.53;;